N1TS LEMG-LEVX
Flight info
| Callsign | N1TS |
|---|---|
| Flight time | 1h 7m |
| Altitude | 34000 |
| Route | JRZ3H JRZ DCT ONUBA DCT ODPAK/N0417F240 UZ7 MAGUM DCT FTM DCT MANIK DCT PRT DCT AGADO AGADO1T |
| Aircraft | B737/M-SDFGIRY/S |
Departure
| Time | 2026-04-18 10:25 |
|---|---|
| Airport | Málaga-Costa del Sol Airport (LEMG) |
Arrival
| Time | 2026-04-18 11:33 |
|---|---|
| Airport | Vigo Airport (LEVX) |
| Time | Latitude | Longitude | Altitude | Speed | Heading |
|---|---|---|---|---|---|
| 2026-04-18 10:09 | 36.68148 | -4.50303 | 41 ft | 0 kts | 184° |
| 2026-04-18 10:21 | 36.68142 | -4.50305 | 40 ft | 2 kts | 192° |
| 2026-04-18 10:22 | 36.68123 | -4.50323 | 41 ft | 6 kts | 236° |
| 2026-04-18 10:22 | 36.68114 | -4.50382 | 41 ft | 8 kts | 252° |
| 2026-04-18 10:22 | 36.68091 | -4.50444 | 42 ft | 8 kts | 272° |
| 2026-04-18 10:22 | 36.68127 | -4.50509 | 43 ft | 11 kts | 311° |
| 2026-04-18 10:23 | 36.68179 | -4.50581 | 43 ft | 13 kts | 313° |
| 2026-04-18 10:23 | 36.68244 | -4.50671 | 44 ft | 15 kts | 311° |
| 2026-04-18 10:23 | 36.68319 | -4.50776 | 47 ft | 16 kts | 312° |
| 2026-04-18 10:23 | 36.68397 | -4.50886 | 49 ft | 17 kts | 312° |
| 2026-04-18 10:24 | 36.68477 | -4.50997 | 52 ft | 17 kts | 312° |
| 2026-04-18 10:24 | 36.68491 | -4.51128 | 55 ft | 16 kts | 251° |
| 2026-04-18 10:24 | 36.68434 | -4.51219 | 56 ft | 9 kts | 174° |
| 2026-04-18 10:24 | 36.68387 | -4.51166 | 60 ft | 9 kts | 131° |
| 2026-04-18 10:25 | 36.68326 | -4.51083 | 57 ft | 35 kts | 133° |
| 2026-04-18 10:25 | 36.67917 | -4.50509 | 53 ft | 138 kts | 131° |
| 2026-04-18 10:25 | 36.67143 | -4.49445 | 607 ft | 175 kts | 131° |
| 2026-04-18 10:25 | 36.66260 | -4.48321 | 1642 ft | 186 kts | 135° |
| 2026-04-18 10:26 | 36.65303 | -4.47179 | 2674 ft | 196 kts | 135° |
| 2026-04-18 10:26 | 36.64263 | -4.45945 | 3312 ft | 215 kts | 135° |
| 2026-04-18 10:26 | 36.63157 | -4.44629 | 4041 ft | 223 kts | 136° |
| 2026-04-18 10:26 | 36.62035 | -4.43284 | 4732 ft | 224 kts | 135° |
| 2026-04-18 10:27 | 36.60915 | -4.41935 | 5446 ft | 225 kts | 136° |
| 2026-04-18 10:27 | 36.59792 | -4.40578 | 6166 ft | 230 kts | 136° |
| 2026-04-18 10:27 | 36.58594 | -4.39235 | 6873 ft | 233 kts | 149° |
| 2026-04-18 10:27 | 36.57024 | -4.38787 | 7559 ft | 237 kts | 185° |
| 2026-04-18 10:28 | 36.55470 | -4.39479 | 8279 ft | 243 kts | 214° |
| 2026-04-18 10:28 | 36.54323 | -4.41041 | 9009 ft | 250 kts | 240° |
| 2026-04-18 10:28 | 36.53651 | -4.43031 | 9757 ft | 254 kts | 251° |
| 2026-04-18 10:28 | 36.53109 | -4.45156 | 10474 ft | 264 kts | 253° |
| 2026-04-18 10:29 | 36.52550 | -4.47410 | 11200 ft | 280 kts | 252° |
| 2026-04-18 10:29 | 36.51941 | -4.49785 | 11938 ft | 295 kts | 252° |
| 2026-04-18 10:29 | 36.51289 | -4.52268 | 12690 ft | 309 kts | 252° |
| 2026-04-18 10:29 | 36.51065 | -4.54973 | 13420 ft | 325 kts | 278° |
| 2026-04-18 10:30 | 36.51674 | -4.57200 | 14066 ft | 336 kts | 298° |
| 2026-04-18 10:30 | 36.52859 | -4.59714 | 14772 ft | 347 kts | 301° |
| 2026-04-18 10:30 | 36.54137 | -4.62290 | 15472 ft | 353 kts | 301° |
| 2026-04-18 10:30 | 36.55433 | -4.64900 | 16187 ft | 356 kts | 301° |
| 2026-04-18 10:31 | 36.56726 | -4.67544 | 16913 ft | 358 kts | 300° |
| 2026-04-18 10:31 | 36.58012 | -4.70214 | 17651 ft | 360 kts | 300° |
| 2026-04-18 10:31 | 36.59971 | -4.74339 | 18772 ft | 361 kts | 300° |
| 2026-04-18 10:31 | 36.62531 | -4.79790 | 20148 ft | 367 kts | 299° |
| 2026-04-18 10:32 | 36.65100 | -4.85288 | 21589 ft | 376 kts | 299° |
| 2026-04-18 10:32 | 36.67358 | -4.91222 | 23120 ft | 383 kts | 290° |
| 2026-04-18 10:32 | 36.69294 | -4.97458 | 24533 ft | 388 kts | 290° |
| 2026-04-18 10:32 | 36.71245 | -5.03744 | 25916 ft | 390 kts | 290° |
| 2026-04-18 10:33 | 36.73234 | -5.10051 | 27359 ft | 390 kts | 290° |
| 2026-04-18 10:33 | 36.75235 | -5.16343 | 28860 ft | 389 kts | 290° |
| 2026-04-18 10:33 | 36.77225 | -5.22600 | 30392 ft | 386 kts | 290° |
| 2026-04-18 10:33 | 36.79190 | -5.28791 | 31763 ft | 381 kts | 290° |
| 2026-04-18 10:34 | 36.81123 | -5.34891 | 33193 ft | 373 kts | 290° |
| 2026-04-18 10:34 | 36.83001 | -5.40830 | 34594 ft | 362 kts | 290° |
| 2026-04-18 10:34 | 36.84828 | -5.46624 | 35553 ft | 361 kts | 289° |
| 2026-04-18 10:34 | 36.86705 | -5.52598 | 35963 ft | 374 kts | 289° |
| 2026-04-18 10:35 | 36.88620 | -5.58702 | 36150 ft | 392 kts | 289° |
| 2026-04-18 10:35 | 36.90661 | -5.65220 | 36146 ft | 413 kts | 289° |
| 2026-04-18 10:35 | 36.92810 | -5.72096 | 36110 ft | 433 kts | 289° |
| 2026-04-18 10:35 | 36.95032 | -5.79217 | 36118 ft | 447 kts | 289° |
| 2026-04-18 10:36 | 36.97299 | -5.86498 | 36091 ft | 448 kts | 289° |
| 2026-04-18 10:36 | 36.99528 | -5.93668 | 36072 ft | 436 kts | 289° |
| 2026-04-18 10:36 | 37.01691 | -6.00651 | 36074 ft | 424 kts | 289° |
| 2026-04-18 10:37 | 37.05938 | -6.14430 | 36112 ft | 426 kts | 289° |
| 2026-04-18 10:37 | 37.10214 | -6.28369 | 36104 ft | 436 kts | 289° |
| 2026-04-18 10:38 | 37.13843 | -6.40245 | 36073 ft | 439 kts | 289° |
| 2026-04-18 10:38 | 37.16020 | -6.47394 | 35769 ft | 438 kts | 289° |
| 2026-04-18 10:38 | 37.18176 | -6.54493 | 35480 ft | 431 kts | 289° |
| 2026-04-18 10:38 | 37.20298 | -6.61498 | 35188 ft | 429 kts | 289° |
| 2026-04-18 10:39 | 37.22412 | -6.68497 | 34905 ft | 428 kts | 289° |
| 2026-04-18 10:39 | 37.24777 | -6.75390 | 34608 ft | 434 kts | 298° |
| 2026-04-18 10:39 | 37.28613 | -6.81367 | 34367 ft | 445 kts | 312° |
| 2026-04-18 10:39 | 37.32924 | -6.86875 | 34131 ft | 446 kts | 312° |
| 2026-04-18 10:40 | 37.37240 | -6.92400 | 34096 ft | 440 kts | 312° |
| 2026-04-18 10:40 | 37.45490 | -7.03156 | 34114 ft | 444 kts | 311° |
| 2026-04-18 10:41 | 37.49829 | -7.08853 | 34122 ft | 459 kts | 311° |
| 2026-04-18 10:41 | 37.54307 | -7.14743 | 34110 ft | 468 kts | 311° |
| 2026-04-18 10:42 | 37.58806 | -7.20661 | 34105 ft | 467 kts | 311° |
| 2026-04-18 10:42 | 37.63261 | -7.26534 | 34102 ft | 465 kts | 311° |
| 2026-04-18 10:43 | 37.67729 | -7.32436 | 34110 ft | 464 kts | 311° |
| 2026-04-18 10:43 | 37.72186 | -7.38337 | 34109 ft | 463 kts | 311° |
| 2026-04-18 10:44 | 37.76613 | -7.44208 | 34108 ft | 463 kts | 311° |
| 2026-04-18 10:44 | 37.81049 | -7.50103 | 34113 ft | 463 kts | 311° |
| 2026-04-18 10:45 | 37.85483 | -7.56006 | 34105 ft | 463 kts | 311° |
| 2026-04-18 10:45 | 37.89907 | -7.61906 | 34107 ft | 463 kts | 311° |
| 2026-04-18 10:46 | 37.94340 | -7.67831 | 34109 ft | 463 kts | 311° |
| 2026-04-18 10:46 | 37.98769 | -7.73760 | 34107 ft | 463 kts | 311° |
| 2026-04-18 10:47 | 38.03193 | -7.79694 | 34109 ft | 463 kts | 311° |
| 2026-04-18 10:47 | 38.07582 | -7.85591 | 34107 ft | 463 kts | 311° |
| 2026-04-18 10:48 | 38.12229 | -7.91259 | 34102 ft | 466 kts | 322° |
| 2026-04-18 10:48 | 38.17963 | -7.95135 | 34103 ft | 471 kts | 338° |
| 2026-04-18 10:49 | 38.24170 | -7.97836 | 34101 ft | 471 kts | 340° |
| 2026-04-18 10:49 | 38.30406 | -8.00488 | 34102 ft | 471 kts | 339° |
| 2026-04-18 10:50 | 38.36576 | -8.03182 | 34108 ft | 471 kts | 339° |
| 2026-04-18 10:50 | 38.42778 | -8.05937 | 34107 ft | 471 kts | 338° |
| 2026-04-18 10:51 | 38.48984 | -8.08708 | 34107 ft | 471 kts | 338° |
| 2026-04-18 10:51 | 38.55182 | -8.11477 | 34105 ft | 472 kts | 338° |
| 2026-04-18 10:52 | 38.61345 | -8.14235 | 34110 ft | 472 kts | 338° |
| 2026-04-18 10:52 | 38.67542 | -8.17012 | 34103 ft | 472 kts | 338° |
| 2026-04-18 10:53 | 38.73718 | -8.19785 | 34105 ft | 472 kts | 338° |
| 2026-04-18 10:53 | 38.79920 | -8.22574 | 34108 ft | 472 kts | 338° |
| 2026-04-18 10:54 | 38.86131 | -8.25373 | 34104 ft | 472 kts | 338° |
| 2026-04-18 10:54 | 38.92341 | -8.28177 | 34106 ft | 473 kts | 338° |
| 2026-04-18 10:55 | 38.98552 | -8.30986 | 34102 ft | 473 kts | 338° |
| 2026-04-18 10:55 | 39.04725 | -8.33784 | 34112 ft | 473 kts | 338° |
| 2026-04-18 10:56 | 39.10941 | -8.36607 | 34111 ft | 473 kts | 338° |
| 2026-04-18 10:56 | 39.17177 | -8.39338 | 34100 ft | 475 kts | 342° |
| 2026-04-18 10:57 | 39.23725 | -8.40813 | 34108 ft | 478 kts | 349° |
| 2026-04-18 10:57 | 39.30319 | -8.42018 | 34110 ft | 478 kts | 349° |
| 2026-04-18 10:58 | 39.36911 | -8.43281 | 34118 ft | 479 kts | 348° |
| 2026-04-18 10:58 | 39.43502 | -8.44601 | 34113 ft | 479 kts | 348° |
| 2026-04-18 10:59 | 39.50049 | -8.45925 | 34113 ft | 479 kts | 348° |
| 2026-04-18 10:59 | 39.56641 | -8.47256 | 34117 ft | 479 kts | 348° |
| 2026-04-18 11:00 | 39.63246 | -8.48591 | 34112 ft | 480 kts | 348° |
| 2026-04-18 11:00 | 39.69828 | -8.49781 | 34104 ft | 481 kts | 351° |
| 2026-04-18 11:01 | 39.76499 | -8.50558 | 34118 ft | 481 kts | 352° |
| 2026-04-18 11:01 | 39.83182 | -8.51269 | 34119 ft | 482 kts | 352° |
| 2026-04-18 11:02 | 39.93213 | -8.52426 | 34117 ft | 482 kts | 352° |
| 2026-04-18 11:02 | 39.99865 | -8.53222 | 34111 ft | 476 kts | 352° |
| 2026-04-18 11:03 | 40.06406 | -8.54008 | 34135 ft | 475 kts | 352° |
| 2026-04-18 11:03 | 40.12991 | -8.54801 | 34119 ft | 475 kts | 352° |
| 2026-04-18 11:04 | 40.19564 | -8.55592 | 34133 ft | 475 kts | 352° |
| 2026-04-18 11:04 | 40.26151 | -8.56386 | 34127 ft | 475 kts | 352° |
| 2026-04-18 11:05 | 40.32740 | -8.57181 | 34124 ft | 475 kts | 352° |
| 2026-04-18 11:05 | 40.39327 | -8.57978 | 34130 ft | 475 kts | 351° |
| 2026-04-18 11:06 | 40.45885 | -8.58773 | 34129 ft | 476 kts | 352° |
| 2026-04-18 11:06 | 40.52481 | -8.59574 | 34127 ft | 476 kts | 351° |
| 2026-04-18 11:07 | 40.59099 | -8.60379 | 34127 ft | 477 kts | 351° |
| 2026-04-18 11:07 | 40.65719 | -8.61186 | 34118 ft | 477 kts | 351° |
| 2026-04-18 11:08 | 40.69956 | -8.61704 | 34113 ft | 477 kts | 351° |
| 2026-04-18 11:09 | 40.75057 | -8.62328 | 34114 ft | 477 kts | 351° |
| 2026-04-18 11:09 | 40.81514 | -8.63112 | 34030 ft | 451 kts | 351° |
| 2026-04-18 11:09 | 40.84588 | -8.63484 | 34046 ft | 435 kts | 351° |
| 2026-04-18 11:10 | 40.87518 | -8.63841 | 34020 ft | 420 kts | 351° |
| 2026-04-18 11:10 | 40.90430 | -8.64201 | 33593 ft | 417 kts | 350° |
| 2026-04-18 11:10 | 40.93312 | -8.64560 | 33075 ft | 416 kts | 351° |
| 2026-04-18 11:10 | 40.96190 | -8.64920 | 32559 ft | 415 kts | 351° |
| 2026-04-18 11:11 | 40.99072 | -8.65279 | 32000 ft | 415 kts | 351° |
| 2026-04-18 11:11 | 41.01922 | -8.65634 | 31459 ft | 416 kts | 351° |
| 2026-04-18 11:11 | 41.04792 | -8.65989 | 31047 ft | 412 kts | 351° |
| 2026-04-18 11:11 | 41.07642 | -8.66341 | 30622 ft | 410 kts | 351° |
| 2026-04-18 11:12 | 41.10473 | -8.66691 | 30201 ft | 407 kts | 351° |
| 2026-04-18 11:12 | 41.13289 | -8.67040 | 29717 ft | 404 kts | 351° |
| 2026-04-18 11:12 | 41.16080 | -8.67386 | 29242 ft | 401 kts | 351° |
| 2026-04-18 11:12 | 41.18848 | -8.67730 | 28789 ft | 397 kts | 351° |
| 2026-04-18 11:13 | 41.21589 | -8.68071 | 28323 ft | 394 kts | 351° |
| 2026-04-18 11:13 | 41.24306 | -8.68408 | 27881 ft | 390 kts | 351° |
| 2026-04-18 11:13 | 41.26999 | -8.68776 | 27424 ft | 386 kts | 347° |
| 2026-04-18 11:13 | 41.29594 | -8.69562 | 27023 ft | 378 kts | 340° |
| 2026-04-18 11:14 | 41.32109 | -8.70545 | 26581 ft | 376 kts | 339° |
| 2026-04-18 11:14 | 41.34605 | -8.71563 | 26151 ft | 373 kts | 338° |
| 2026-04-18 11:14 | 41.37080 | -8.72578 | 25714 ft | 371 kts | 338° |
| 2026-04-18 11:14 | 41.39516 | -8.73570 | 25291 ft | 370 kts | 339° |
| 2026-04-18 11:15 | 41.41974 | -8.74561 | 24867 ft | 368 kts | 339° |
| 2026-04-18 11:15 | 41.44421 | -8.75541 | 24420 ft | 367 kts | 339° |
| 2026-04-18 11:15 | 41.46879 | -8.76521 | 23972 ft | 366 kts | 339° |
| 2026-04-18 11:15 | 41.49315 | -8.77491 | 23481 ft | 365 kts | 339° |
| 2026-04-18 11:16 | 41.51748 | -8.78458 | 22992 ft | 363 kts | 339° |
| 2026-04-18 11:16 | 41.54163 | -8.79418 | 22530 ft | 360 kts | 339° |
| 2026-04-18 11:16 | 41.56525 | -8.80357 | 22075 ft | 357 kts | 339° |
| 2026-04-18 11:16 | 41.58900 | -8.81302 | 21640 ft | 354 kts | 339° |
| 2026-04-18 11:17 | 41.61251 | -8.82239 | 21201 ft | 351 kts | 339° |
| 2026-04-18 11:17 | 41.63582 | -8.83169 | 20775 ft | 348 kts | 339° |
| 2026-04-18 11:17 | 41.65896 | -8.84092 | 20339 ft | 346 kts | 339° |
| 2026-04-18 11:17 | 41.68195 | -8.85011 | 19912 ft | 344 kts | 339° |
| 2026-04-18 11:18 | 41.70479 | -8.85925 | 19481 ft | 341 kts | 339° |
| 2026-04-18 11:18 | 41.72760 | -8.86838 | 19056 ft | 340 kts | 339° |
| 2026-04-18 11:18 | 41.75027 | -8.87745 | 18613 ft | 339 kts | 339° |
| 2026-04-18 11:18 | 41.77252 | -8.88638 | 18146 ft | 338 kts | 339° |
| 2026-04-18 11:19 | 41.79501 | -8.89540 | 17673 ft | 336 kts | 339° |
| 2026-04-18 11:19 | 41.81728 | -8.90433 | 17227 ft | 333 kts | 339° |
| 2026-04-18 11:19 | 41.83943 | -8.91322 | 16785 ft | 330 kts | 339° |
| 2026-04-18 11:19 | 41.86141 | -8.92172 | 16346 ft | 329 kts | 345° |
| 2026-04-18 11:20 | 41.88433 | -8.92246 | 15957 ft | 332 kts | 8° |
| 2026-04-18 11:20 | 41.90659 | -8.91498 | 15597 ft | 329 kts | 13° |
| 2026-04-18 11:20 | 41.92852 | -8.90621 | 15176 ft | 327 kts | 15° |
| 2026-04-18 11:20 | 41.95027 | -8.89723 | 14755 ft | 326 kts | 15° |
| 2026-04-18 11:21 | 41.97190 | -8.88834 | 14337 ft | 324 kts | 15° |
| 2026-04-18 11:21 | 41.99324 | -8.87966 | 13905 ft | 324 kts | 15° |
| 2026-04-18 11:21 | 42.01483 | -8.87099 | 13432 ft | 323 kts | 14° |
| 2026-04-18 11:21 | 42.03642 | -8.86238 | 12958 ft | 322 kts | 15° |
| 2026-04-18 11:22 | 42.05786 | -8.85385 | 12535 ft | 320 kts | 14° |
| 2026-04-18 11:22 | 42.07920 | -8.84539 | 12126 ft | 318 kts | 15° |
| 2026-04-18 11:22 | 42.10044 | -8.83697 | 11661 ft | 318 kts | 15° |
| 2026-04-18 11:22 | 42.12160 | -8.82858 | 11242 ft | 315 kts | 15° |
| 2026-04-18 11:23 | 42.14257 | -8.82027 | 10815 ft | 313 kts | 15° |
| 2026-04-18 11:23 | 42.16341 | -8.81200 | 10405 ft | 311 kts | 15° |
| 2026-04-18 11:23 | 42.18407 | -8.80380 | 10177 ft | 303 kts | 15° |
| 2026-04-18 11:23 | 42.20361 | -8.79603 | 10119 ft | 289 kts | 15° |
| 2026-04-18 11:24 | 42.22239 | -8.78856 | 10109 ft | 274 kts | 15° |
| 2026-04-18 11:24 | 42.24016 | -8.78149 | 10109 ft | 259 kts | 15° |
| 2026-04-18 11:24 | 42.25711 | -8.77474 | 10116 ft | 252 kts | 15° |
| 2026-04-18 11:24 | 42.27402 | -8.76802 | 10155 ft | 253 kts | 15° |
| 2026-04-18 11:25 | 42.29097 | -8.76126 | 10080 ft | 257 kts | 15° |
| 2026-04-18 11:25 | 42.30802 | -8.75449 | 9859 ft | 259 kts | 14° |
| 2026-04-18 11:25 | 42.32540 | -8.74759 | 9531 ft | 260 kts | 15° |
| 2026-04-18 11:25 | 42.34263 | -8.74069 | 9159 ft | 256 kts | 15° |
| 2026-04-18 11:26 | 42.35960 | -8.73392 | 8813 ft | 253 kts | 15° |
| 2026-04-18 11:26 | 42.37637 | -8.72723 | 8457 ft | 250 kts | 15° |
| 2026-04-18 11:26 | 42.39307 | -8.72056 | 8039 ft | 249 kts | 15° |
| 2026-04-18 11:26 | 42.40961 | -8.71395 | 7659 ft | 247 kts | 16° |
| 2026-04-18 11:27 | 42.42051 | -8.70960 | 7385 ft | 246 kts | 16° |
| 2026-04-18 11:27 | 42.43589 | -8.69998 | 6992 ft | 245 kts | 41° |
| 2026-04-18 11:27 | 42.44556 | -8.68151 | 6607 ft | 241 kts | 73° |
| 2026-04-18 11:27 | 42.44694 | -8.65934 | 6171 ft | 235 kts | 102° |
| 2026-04-18 11:28 | 42.44221 | -8.63844 | 5773 ft | 232 kts | 114° |
| 2026-04-18 11:28 | 42.43603 | -8.61832 | 5274 ft | 235 kts | 115° |
| 2026-04-18 11:28 | 42.42877 | -8.59794 | 4518 ft | 245 kts | 129° |
| 2026-04-18 11:28 | 42.41535 | -8.58631 | 4235 ft | 221 kts | 169° |
| 2026-04-18 11:29 | 42.40067 | -8.58475 | 3949 ft | 209 kts | 181° |
| 2026-04-18 11:29 | 42.38635 | -8.58604 | 3688 ft | 204 kts | 186° |
| 2026-04-18 11:29 | 42.37245 | -8.58872 | 3406 ft | 198 kts | 190° |
| 2026-04-18 11:29 | 42.35940 | -8.59211 | 3160 ft | 185 kts | 191° |
| 2026-04-18 11:30 | 42.34716 | -8.59547 | 2914 ft | 173 kts | 191° |
| 2026-04-18 11:30 | 42.33567 | -8.59858 | 2692 ft | 164 kts | 191° |
| 2026-04-18 11:30 | 42.32469 | -8.60156 | 2469 ft | 157 kts | 191° |
| 2026-04-18 11:30 | 42.31394 | -8.60449 | 2284 ft | 158 kts | 192° |
| 2026-04-18 11:31 | 42.30313 | -8.60743 | 2070 ft | 158 kts | 192° |
| 2026-04-18 11:31 | 42.29246 | -8.61033 | 1872 ft | 155 kts | 192° |
| 2026-04-18 11:31 | 42.28222 | -8.61312 | 1644 ft | 144 kts | 191° |
| 2026-04-18 11:31 | 42.27271 | -8.61569 | 1461 ft | 139 kts | 192° |
| 2026-04-18 11:32 | 42.26326 | -8.61828 | 1282 ft | 138 kts | 192° |
| 2026-04-18 11:32 | 42.25391 | -8.62092 | 1115 ft | 138 kts | 192° |
| 2026-04-18 11:32 | 42.24456 | -8.62344 | 908 ft | 134 kts | 191° |
| 2026-04-18 11:32 | 42.23587 | -8.62576 | 839 ft | 116 kts | 191° |
| 2026-04-18 11:33 | 42.22933 | -8.62749 | 835 ft | 77 kts | 191° |
| 2026-04-18 11:33 | 42.22554 | -8.62851 | 839 ft | 45 kts | 191° |
| 2026-04-18 11:33 | 42.22334 | -8.62910 | 839 ft | 17 kts | 191° |
| 2026-04-18 11:33 | 42.22217 | -8.62943 | 833 ft | 17 kts | 194° |
| 2026-04-18 11:34 | 42.22125 | -8.63026 | 835 ft | 16 kts | 236° |
| 2026-04-18 11:34 | 42.22125 | -8.63162 | 836 ft | 15 kts | 316° |
| 2026-04-18 11:34 | 42.22227 | -8.63156 | 833 ft | 15 kts | 11° |
| 2026-04-18 11:34 | 42.22326 | -8.63129 | 834 ft | 14 kts | 11° |
| 2026-04-18 11:35 | 42.22422 | -8.63103 | 838 ft | 14 kts | 11° |
| 2026-04-18 11:35 | 42.22526 | -8.63075 | 838 ft | 16 kts | 12° |
| 2026-04-18 11:35 | 42.22631 | -8.63050 | 837 ft | 12 kts | 357° |
| 2026-04-18 11:35 | 42.22647 | -8.63084 | 835 ft | 5 kts | 278° |
| 2026-04-18 11:36 | 42.22655 | -8.63143 | 842 ft | 1 kts | 281° |